CheckWX is a tool to help pilots better visualize weather data.  It is not intended as a substitute for an official pre-flight weather briefing.

14:02:47 UTC

CYBN METAR
CFB Borden Heliport
Borden, Canada
Current

1 hour ago

CYBN 251300Z AUTO 18007KT 9SM CLR 07/03 A2991 RMK SLP136
Observed
Apr-25 @ 13:00 UTC
Wind
  • 180° at 7 KTS
Visibility
9 SM
Flight Rules
VFR
Cloud Levels
  • Clear skies
Temperature
C / 45°F
Dewpoint
C / 37°F
Humidity
76%
Altimeter
29.91" Hg
Pressure
1012.92 hPa
Previous

2 hours ago

CYBN 251200Z AUTO 20002KT 9SM CLR 03/02 A2991 RMK SLP136
Observed
Apr-25 @ 12:00 UTC
Wind
  • 200° at 2 KTS
Visibility
9 SM
Flight Rules
VFR
Cloud Levels
  • Clear skies
Temperature
C / 37°F
Dewpoint
C / 36°F
Humidity
93%
Altimeter
29.91" Hg
Pressure
1012.92 hPa
Previous

3 hours ago

CYBN 251100Z AUTO 22002KT 9SM CLR M02/M03 A2990 RMK ICG PAST HR SLP135
Observed
Apr-25 @ 11:00 UTC
Wind
  • 220° at 2 KTS
Visibility
9 SM
Flight Rules
VFR
Cloud Levels
  • Clear skies
Temperature
-2°C / 28°F
Dewpoint
-3°C / 27°F
Humidity
93%
Altimeter
29.9" Hg
Pressure
1012.52 hPa